Time;durP1;ratioP1;P1;durP2;ratioP2;P2;SDS_P1;SDS_P2;PMS_P1;PMS_P2;Temp;Humidity;BMP_temperature;BMP_pressure;BME280_temperature;BME280_humidity;BME280_pressure;Samples;Min_cycle;Max_cycle;Signal;HPM_P1;HPM_P2
2023/08/06 00:01:31;;;;;;;0.40;0.40;;;14.60;99.90;;;;;;5093949;28;20088;-72
2023/08/06 00:03:57;;;;;;;0.30;0.30;;;14.60;99.90;;;;;;5094047;28;20040;-72
2023/08/06 00:06:22;;;;;;;0.40;0.40;;;14.60;99.90;;;;;;5094356;28;20321;-73
2023/08/06 00:08:48;;;;;;;0.60;0.60;;;14.60;99.90;;;;;;5093925;28;20048;-72
2023/08/06 00:11:13;;;;;;;0.93;0.60;;;14.60;99.90;;;;;;5093940;28;20051;-72
2023/08/06 00:13:39;;;;;;;0.70;0.70;;;14.60;99.90;;;;;;5093880;28;20119;-72
2023/08/06 00:16:13;;;;;;;0.40;0.40;;;14.50;99.90;;;;;;5093867;28;20028;-72
2023/08/06 00:18:39;;;;;;;0.40;0.40;;;14.50;99.90;;;;;;5093700;28;20059;-72
2023/08/06 00:21:04;;;;;;;0.40;0.40;;;14.50;99.90;;;;;;5093771;28;20048;-72
2023/08/06 00:23:30;;;;;;;0.60;0.60;;;14.50;99.90;;;;;;5094386;28;20040;-72
2023/08/06 00:25:56;;;;;;;0.85;0.73;;;14.50;99.90;;;;;;5093817;28;20086;-72
2023/08/06 00:28:21;;;;;;;0.40;0.40;;;14.50;99.90;;;;;;5094155;28;20062;-72
2023/08/06 00:30:53;;;;;;;0.33;0.33;;;14.50;99.90;;;;;;5093738;28;20385;-73
2023/08/06 00:33:18;;;;;;;0.40;0.40;;;14.50;99.90;;;;;;5093749;28;20040;-72
2023/08/06 00:35:44;;;;;;;0.40;0.40;;;14.50;99.90;;;;;;5093660;28;20044;-72
2023/08/06 00:38:09;;;;;;;0.38;0.38;;;14.50;99.90;;;;;;5093709;28;20039;-72
2023/08/06 00:40:35;;;;;;;0.82;0.60;;;14.40;99.90;;;;;;5093608;28;20123;-73
2023/08/06 00:43:01;;;;;;;0.63;0.63;;;14.40;99.90;;;;;;5093908;28;20131;-72
2023/08/06 00:45:29;;;;;;;0.40;0.40;;;14.40;99.90;;;;;;5093787;28;20076;-72
2023/08/06 00:47:56;;;;;;;0.65;0.60;;;14.40;99.90;;;;;;5093602;28;20476;-73
2023/08/06 00:50:22;;;;;;;0.40;0.40;;;14.40;99.90;;;;;;5093422;28;20048;-72
2023/08/06 00:52:49;;;;;;;0.40;0.40;;;14.40;99.90;;;;;;5093946;28;20084;-72
2023/08/06 00:55:15;;;;;;;0.40;0.40;;;14.40;99.90;;;;;;5093170;28;20472;-72
2023/08/06 00:57:41;;;;;;;0.53;0.53;;;14.40;99.90;;;;;;5093480;28;20040;-72
2023/08/06 01:00:07;;;;;;;0.63;0.60;;;14.30;99.90;;;;;;5095659;28;20044;-72
2023/08/06 01:02:33;;;;;;;0.45;0.45;;;14.40;99.90;;;;;;5097494;28;20035;-72
2023/08/06 01:04:59;;;;;;;0.50;0.50;;;14.30;99.90;;;;;;5097201;28;20039;-72
2023/08/06 01:07:36;;;;;;;0.83;0.50;;;14.40;99.90;;;;;;5097249;28;20119;-72
2023/08/06 01:10:17;;;;;;;;;;;14.40;99.90;;;;;;5097559;28;20127;-73
2023/08/06 01:13:01;;;;;;;0.68;0.68;;;14.40;99.90;;;;;;5097222;28;20045;-72
2023/08/06 01:15:32;;;;;;;0.55;0.55;;;14.40;99.90;;;;;;5096759;28;20036;-72
2023/08/06 01:17:59;;;;;;;0.50;0.50;;;14.30;99.90;;;;;;5097087;28;20369;-72
2023/08/06 01:20:29;;;;;;;;;;;14.30;99.90;;;;;;5097750;28;20483;-72
2023/08/06 01:22:54;;;;;;;0.38;0.38;;;14.30;99.90;;;;;;5097106;28;19922;-72
2023/08/06 01:25:20;;;;;;;0.40;0.40;;;14.30;99.90;;;;;;5096932;28;20043;-72
2023/08/06 01:27:50;;;;;;;0.40;0.40;;;14.30;99.90;;;;;;5096828;28;20036;-72
2023/08/06 01:30:27;;;;;;;0.52;0.52;;;14.40;99.90;;;;;;5097272;28;20097;-72
2023/08/06 01:32:58;;;;;;;0.60;0.60;;;14.30;99.90;;;;;;5096835;28;20089;-72
2023/08/06 01:35:26;;;;;;;0.52;0.52;;;14.30;99.90;;;;;;5096608;28;20039;-72
2023/08/06 01:37:52;;;;;;;0.40;0.40;;;14.30;99.90;;;;;;5096792;28;20352;-72
2023/08/06 01:40:18;;;;;;;0.40;0.40;;;14.30;99.90;;;;;;5096478;28;20066;-72
2023/08/06 01:42:43;;;;;;;0.57;0.57;;;14.40;99.90;;;;;;5096495;28;20363;-73
2023/08/06 01:45:10;;;;;;;0.40;0.40;;;14.30;99.90;;;;;;5097121;28;20036;-72
2023/08/06 01:47:36;;;;;;;0.63;0.63;;;14.40;99.90;;;;;;5096388;28;20495;-73
2023/08/06 01:50:02;;;;;;;0.50;0.50;;;14.40;99.90;;;;;;5096451;28;20044;-72
2023/08/06 01:52:28;;;;;;;0.50;0.50;;;14.30;99.90;;;;;;5096389;28;20036;-72
2023/08/06 01:54:54;;;;;;;0.33;0.33;;;14.30;99.90;;;;;;5095091;28;20035;-72
2023/08/06 01:57:20;;;;;;;0.60;0.60;;;14.40;99.90;;;;;;5096311;28;20040;-72
2023/08/06 01:59:45;;;;;;;0.73;0.68;;;14.30;99.90;;;;;;5096837;28;20043;-72
2023/08/06 02:02:11;;;;;;;0.50;0.50;;;14.30;99.90;;;;;;5096168;28;20048;-72
2023/08/06 02:04:37;;;;;;;0.60;0.60;;;14.30;99.90;;;;;;5096143;28;20048;-72
2023/08/06 02:07:03;;;;;;;0.30;0.30;;;14.30;99.90;;;;;;5096057;28;20353;-72
2023/08/06 02:09:28;;;;;;;0.43;0.40;;;14.30;99.90;;;;;;5096074;28;20047;-72
2023/08/06 02:11:54;;;;;;;0.60;0.60;;;14.30;99.90;;;;;;5095414;28;20040;-72
2023/08/06 02:14:20;;;;;;;0.60;0.60;;;14.30;99.90;;;;;;5095950;28;20463;-72
2023/08/06 02:16:45;;;;;;;0.50;0.50;;;14.20;99.90;;;;;;5095951;28;20047;-72
2023/08/06 02:19:11;;;;;;;0.63;0.63;;;14.20;99.90;;;;;;5095597;28;20060;-72
2023/08/06 02:21:37;;;;;;;0.40;0.40;;;14.30;99.90;;;;;;5095808;28;20119;-73
2023/08/06 02:24:02;;;;;;;0.40;0.40;;;14.30;99.90;;;;;;5095761;28;20082;-72
2023/08/06 02:26:28;;;;;;;0.50;0.50;;;14.20;99.90;;;;;;5095644;28;20047;-72
2023/08/06 02:28:54;;;;;;;0.75;0.60;;;14.20;99.90;;;;;;5095689;28;20036;-72
2023/08/06 02:31:19;;;;;;;0.50;0.50;;;14.30;99.90;;;;;;5095618;28;20040;-72
2023/08/06 02:33:45;;;;;;;0.40;0.40;;;14.20;99.90;;;;;;5095550;28;20032;-72
2023/08/06 02:36:10;;;;;;;0.47;0.47;;;14.30;99.90;;;;;;5095526;28;20039;-72
2023/08/06 02:38:36;;;;;;;0.38;0.38;;;14.20;99.90;;;;;;5095639;28;20040;-72
2023/08/06 02:41:03;;;;;;;0.60;0.60;;;14.30;99.90;;;;;;5095414;28;20071;-72
2023/08/06 02:43:29;;;;;;;0.40;0.40;;;14.30;99.90;;;;;;5095323;28;20082;-72
2023/08/06 02:45:59;;;;;;;0.50;0.50;;;14.20;99.90;;;;;;5095374;28;20075;-72
2023/08/06 02:48:24;;;;;;;1.88;1.75;;;14.30;99.90;;;;;;5095390;28;20439;-73
2023/08/06 02:50:50;;;;;;;0.40;0.40;;;14.30;99.90;;;;;;5095292;28;20105;-72
2023/08/06 02:53:16;;;;;;;0.40;0.40;;;14.30;99.90;;;;;;5095195;28;20046;-73
2023/08/06 02:55:50;;;;;;;0.53;0.53;;;14.30;99.90;;;;;;5094839;28;20119;-73
2023/08/06 02:58:16;;;;;;;0.40;0.40;;;14.30;99.90;;;;;;5095068;28;20036;-73
2023/08/06 03:00:43;;;;;;;0.40;0.40;;;14.30;99.90;;;;;;5095064;28;20434;-72
2023/08/06 03:03:09;;;;;;;;;;;14.20;99.90;;;;;;5095344;28;20114;-72
2023/08/06 03:05:35;;;;;;;0.40;0.40;;;14.20;99.90;;;;;;5094761;28;20003;-72
2023/08/06 03:08:00;;;;;;;0.52;0.52;;;14.20;99.90;;;;;;5094996;28;20360;-73
2023/08/06 03:10:26;;;;;;;0.87;0.60;;;14.20;99.90;;;;;;5094776;28;20036;-72
2023/08/06 03:12:52;;;;;;;0.57;0.57;;;14.20;99.90;;;;;;5094825;28;20044;-72
2023/08/06 03:15:17;;;;;;;0.50;0.50;;;14.20;99.90;;;;;;5094808;28;20051;-72
2023/08/06 03:17:44;;;;;;;0.30;0.30;;;14.20;99.90;;;;;;5094589;28;20126;-73
2023/08/06 03:20:10;;;;;;;0.63;0.50;;;14.10;99.90;;;;;;5094648;28;20048;-72
2023/08/06 03:22:36;;;;;;;0.30;0.30;;;14.10;99.90;;;;;;5093962;28;20057;-72
2023/08/06 03:25:02;;;;;;;0.40;0.40;;;14.00;99.90;;;;;;5093380;28;20487;-72
2023/08/06 03:27:27;;;;;;;0.65;0.60;;;14.00;99.90;;;;;;5094551;28;20044;-72
2023/08/06 03:29:53;;;;;;;0.30;0.30;;;14.00;99.90;;;;;;5094419;28;20039;-72
2023/08/06 03:32:18;;;;;;;0.47;0.47;;;13.90;99.90;;;;;;5094805;28;20044;-72
2023/08/06 03:34:44;;;;;;;0.40;0.40;;;13.90;99.90;;;;;;5094409;28;20032;-72
2023/08/06 03:37:10;;;;;;;0.60;0.60;;;13.90;99.90;;;;;;5094471;28;20075;-72
2023/08/06 03:39:35;;;;;;;0.30;0.30;;;13.90;99.90;;;;;;5094301;28;20119;-72
2023/08/06 03:42:01;;;;;;;0.60;0.60;;;13.90;99.90;;;;;;5094264;28;20048;-72
2023/08/06 03:44:28;;;;;;;0.40;0.40;;;13.90;99.90;;;;;;5094332;28;20044;-72
2023/08/06 03:46:53;;;;;;;0.50;0.50;;;13.80;99.90;;;;;;5094253;28;20039;-72
2023/08/06 03:49:19;;;;;;;0.60;0.60;;;13.80;99.90;;;;;;5094269;28;20074;-72
2023/08/06 03:51:44;;;;;;;0.50;0.50;;;13.90;99.90;;;;;;5094294;28;20119;-72
2023/08/06 03:54:10;;;;;;;0.40;0.40;;;14.00;99.90;;;;;;5094064;28;20071;-71
2023/08/06 03:56:36;;;;;;;0.73;0.73;;;14.00;99.90;;;;;;5094153;28;20089;-72
2023/08/06 03:59:01;;;;;;;0.50;0.50;;;14.00;99.90;;;;;;5094087;28;20039;-72
2023/08/06 04:01:27;;;;;;;0.50;0.50;;;14.00;99.90;;;;;;5093994;28;20043;-72
2023/08/06 04:03:52;;;;;;;0.50;0.50;;;14.00;99.90;;;;;;5094045;28;20044;-72
2023/08/06 04:06:18;;;;;;;0.50;0.50;;;14.00;99.90;;;;;;5093948;28;20048;-72
2023/08/06 04:08:43;;;;;;;0.40;0.40;;;14.00;99.90;;;;;;5093912;28;20036;-72
2023/08/06 04:11:09;;;;;;;0.50;0.50;;;14.00;99.90;;;;;;5092797;28;20043;-73
2023/08/06 04:13:35;;;;;;;0.60;0.60;;;14.00;99.90;;;;;;5093896;28;20419;-72
2023/08/06 04:16:02;;;;;;;0.40;0.40;;;14.00;99.90;;;;;;5093994;28;20044;-73
2023/08/06 04:18:28;;;;;;;0.50;0.50;;;14.00;99.90;;;;;;5093897;28;20396;-72
2023/08/06 04:20:55;;;;;;;0.60;0.60;;;14.00;99.90;;;;;;5092930;28;20131;-72
2023/08/06 04:23:20;;;;;;;0.40;0.40;;;14.00;99.90;;;;;;5093606;28;20127;-72
2023/08/06 04:25:46;;;;;;;0.70;0.70;;;14.10;99.90;;;;;;5094138;28;20396;-72
2023/08/06 04:28:12;;;;;;;0.60;0.60;;;14.10;99.90;;;;;;5093510;28;20040;-72
2023/08/06 04:30:38;;;;;;;0.50;0.50;;;14.10;99.90;;;;;;5093761;28;20044;-72
2023/08/06 04:33:03;;;;;;;0.70;0.70;;;14.10;99.90;;;;;;5093862;28;20035;-73
2023/08/06 04:35:29;;;;;;;0.50;0.50;;;14.10;99.90;;;;;;5098111;28;20119;-72
2023/08/06 04:37:55;;;;;;;0.50;0.50;;;14.10;99.90;;;;;;5097833;28;20040;-73
2023/08/06 04:40:21;;;;;;;1.03;0.60;;;14.00;99.90;;;;;;5097650;28;20128;-72
2023/08/06 04:42:46;;;;;;;0.40;0.40;;;14.00;99.90;;;;;;5097877;28;20075;-73
2023/08/06 04:45:12;;;;;;;0.40;0.40;;;14.00;99.90;;;;;;5097684;28;20047;-73
2023/08/06 04:47:37;;;;;;;0.50;0.50;;;14.10;99.90;;;;;;5097863;28;20443;-72
2023/08/06 04:50:03;;;;;;;0.40;0.40;;;14.10;99.90;;;;;;5097651;28;20047;-72
2023/08/06 04:52:29;;;;;;;1.33;1.23;;;14.10;99.90;;;;;;5097591;28;20456;-71
2023/08/06 04:54:55;;;;;;;0.50;0.50;;;14.10;99.90;;;;;;5097170;28;20089;-72
2023/08/06 04:57:21;;;;;;;0.50;0.50;;;14.20;99.90;;;;;;5097896;28;20043;-74
2023/08/06 04:59:46;;;;;;;0.40;0.40;;;14.30;99.90;;;;;;5097597;28;20048;-72
2023/08/06 05:02:12;;;;;;;1.02;0.60;;;14.30;99.90;;;;;;5097049;28;20042;-72
2023/08/06 05:04:38;;;;;;;0.40;0.40;;;14.30;99.90;;;;;;5097614;28;20080;-73
2023/08/06 05:07:05;;;;;;;0.40;0.40;;;14.30;99.90;;;;;;5097204;28;20042;-72
2023/08/06 05:09:30;;;;;;;0.45;0.45;;;14.30;99.90;;;;;;5097404;28;20050;-71
2023/08/06 05:11:56;;;;;;;3.20;1.20;;;14.40;99.90;;;;;;5097199;28;20368;-71
2023/08/06 05:14:22;;;;;;;0.70;0.60;;;14.40;99.90;;;;;;5097490;28;20105;-72
2023/08/06 05:16:47;;;;;;;0.60;0.60;;;14.40;99.90;;;;;;5097080;28;20495;-72
2023/08/06 05:19:13;;;;;;;0.53;0.53;;;14.40;99.90;;;;;;5097031;28;20044;-73
2023/08/06 05:21:38;;;;;;;0.73;0.73;;;14.30;99.90;;;;;;5097041;28;20353;-72
2023/08/06 05:24:04;;;;;;;0.60;0.60;;;14.30;99.90;;;;;;5096971;28;20499;-71
2023/08/06 05:26:30;;;;;;;0.70;0.70;;;14.30;99.90;;;;;;5096957;28;20452;-71
2023/08/06 05:28:55;;;;;;;0.50;0.50;;;14.40;99.90;;;;;;5096563;28;20063;-71
2023/08/06 05:31:21;;;;;;;0.60;0.60;;;14.40;99.90;;;;;;5096815;28;20044;-72
2023/08/06 05:33:46;;;;;;;0.70;0.70;;;14.40;99.90;;;;;;5096982;28;20102;-71
2023/08/06 05:36:12;;;;;;;0.80;0.80;;;14.40;99.90;;;;;;5096552;28;20470;-72
2023/08/06 05:38:38;;;;;;;0.60;0.60;;;14.50;99.90;;;;;;5096652;28;20122;-72
2023/08/06 05:41:03;;;;;;;0.50;0.50;;;14.50;99.90;;;;;;5096329;28;20046;-72
2023/08/06 05:43:29;;;;;;;1.17;0.75;;;14.60;99.90;;;;;;5096566;28;20460;-72
2023/08/06 05:45:56;;;;;;;0.73;0.73;;;14.70;99.90;;;;;;5095868;28;20047;-72
2023/08/06 05:48:22;;;;;;;0.57;0.55;;;14.80;99.90;;;;;;5096533;28;20377;-72
2023/08/06 05:50:48;;;;;;;0.50;0.50;;;14.90;99.90;;;;;;5096447;28;20040;-72
2023/08/06 05:53:13;;;;;;;0.40;0.40;;;15.00;99.90;;;;;;5096146;28;20043;-72
2023/08/06 05:55:39;;;;;;;0.40;0.40;;;15.10;99.90;;;;;;5096319;28;20032;-72
2023/08/06 05:58:05;;;;;;;0.40;0.40;;;15.20;99.90;;;;;;5096271;28;20093;-72
2023/08/06 06:00:31;;;;;;;0.57;0.57;;;15.30;99.90;;;;;;5096138;28;20043;-72
2023/08/06 06:02:56;;;;;;;0.93;0.88;;;15.30;99.90;;;;;;5096150;28;20480;-72
2023/08/06 06:05:22;;;;;;;0.82;0.82;;;15.40;99.90;;;;;;5096134;28;20039;-72
2023/08/06 06:07:47;;;;;;;0.40;0.40;;;15.50;99.90;;;;;;5096097;28;20040;-73
2023/08/06 06:10:13;;;;;;;0.60;0.50;;;15.50;99.90;;;;;;5096041;28;20039;-72
2023/08/06 06:12:40;;;;;;;0.73;0.73;;;15.50;99.90;;;;;;5094891;28;20094;-76
2023/08/06 06:15:06;;;;;;;;;;;15.60;99.90;;;;;;5096418;28;20040;-72
2023/08/06 06:17:31;;;;;;;1.10;0.50;;;15.60;99.90;;;;;;5095822;28;19916;-71
2023/08/06 06:19:57;;;;;;;0.60;0.53;;;15.70;99.90;;;;;;5095830;28;20048;-71
2023/08/06 06:22:23;;;;;;;0.50;0.50;;;15.70;99.90;;;;;;5095631;28;20044;-72
2023/08/06 06:24:48;;;;;;;0.60;0.60;;;15.70;99.90;;;;;;5095367;28;20460;-73
2023/08/06 06:27:14;;;;;;;0.40;0.40;;;15.70;99.90;;;;;;5095871;28;20047;-73
2023/08/06 06:29:39;;;;;;;0.53;0.50;;;15.80;99.90;;;;;;5097107;28;20043;-73
2023/08/06 06:32:05;;;;;;;0.97;0.57;;;15.80;99.90;;;;;;5095801;28;20035;-75
2023/08/06 06:34:31;;;;;;;1.27;0.60;;;15.80;99.90;;;;;;5095619;28;20066;-73
2023/08/06 06:36:56;;;;;;;0.90;0.70;;;16.10;99.90;;;;;;5095507;28;20452;-72
2023/08/06 06:39:22;;;;;;;0.75;0.75;;;16.20;99.90;;;;;;5095560;28;20051;-72
2023/08/06 06:41:48;;;;;;;0.40;0.40;;;16.30;99.90;;;;;;5095376;28;20455;-72
2023/08/06 06:44:14;;;;;;;0.40;0.40;;;16.40;99.90;;;;;;5095413;28;20036;-73
2023/08/06 06:46:40;;;;;;;0.80;0.70;;;16.50;99.90;;;;;;5095612;28;20040;-73
2023/08/06 06:49:06;;;;;;;0.80;0.53;;;16.60;99.90;;;;;;5095460;28;20089;-73
2023/08/06 06:51:31;;;;;;;0.47;0.47;;;16.60;99.90;;;;;;5095257;28;20040;-75
2023/08/06 06:53:57;;;;;;;0.33;0.33;;;16.60;99.90;;;;;;5095080;28;20040;-72
2023/08/06 06:56:23;;;;;;;0.30;0.30;;;16.60;99.90;;;;;;5094931;28;20134;-73
2023/08/06 06:58:48;;;;;;;0.50;0.40;;;16.50;99.90;;;;;;5094409;28;20039;-72
2023/08/06 07:01:14;;;;;;;0.77;0.60;;;16.50;99.90;;;;;;5095209;28;20036;-72
2023/08/06 07:03:40;;;;;;;11.13;0.63;;;16.40;99.90;;;;;;5094853;28;20043;-72
2023/08/06 07:06:07;;;;;;;0.63;0.63;;;16.40;99.90;;;;;;5095106;28;20062;-72
2023/08/06 07:08:33;;;;;;;0.40;0.40;;;16.40;99.90;;;;;;5094783;28;20471;-72
2023/08/06 07:11:03;;;;;;;0.57;0.40;;;16.40;99.90;;;;;;5095361;28;20117;-72
2023/08/06 07:13:29;;;;;;;0.65;0.65;;;16.40;99.90;;;;;;5094382;28;20068;-71
2023/08/06 07:15:56;;;;;;;0.38;0.38;;;16.30;99.90;;;;;;5094344;28;20111;-72
2023/08/06 07:18:28;;;;;;;0.52;0.52;;;16.30;99.90;;;;;;5091254;28;20443;-76
2023/08/06 07:20:54;;;;;;;0.87;0.60;;;16.30;99.90;;;;;;5090206;28;20048;-72
2023/08/06 07:23:21;;;;;;;0.40;0.40;;;16.30;99.90;;;;;;5091203;28;20095;-72
2023/08/06 07:25:47;;;;;;;0.77;0.60;;;16.30;99.90;;;;;;5091688;28;20040;-75
2023/08/06 07:28:13;;;;;;;0.40;0.40;;;16.30;99.90;;;;;;5091195;28;20371;-74
2023/08/06 07:30:39;;;;;;;0.40;0.40;;;16.40;99.90;;;;;;5091168;28;20080;-74
2023/08/06 07:33:06;;;;;;;0.40;0.40;;;16.50;99.90;;;;;;5091070;28;20480;-74
2023/08/06 07:35:32;;;;;;;0.40;0.40;;;16.60;99.90;;;;;;5090909;28;20376;-73
2023/08/06 07:37:57;;;;;;;0.30;0.30;;;16.80;99.90;;;;;;5089860;28;20047;-74
2023/08/06 07:40:23;;;;;;;0.40;0.40;;;16.80;99.90;;;;;;5090671;28;20127;-74
2023/08/06 07:42:48;;;;;;;0.70;0.60;;;16.80;99.90;;;;;;5090856;28;20040;-74
2023/08/06 07:45:14;;;;;;;0.40;0.40;;;16.80;99.90;;;;;;5090865;28;20040;-74
2023/08/06 07:47:40;;;;;;;0.40;0.40;;;16.90;99.90;;;;;;5090780;28;20097;-74
2023/08/06 07:50:06;;;;;;;0.30;0.30;;;16.90;99.90;;;;;;5090697;28;20457;-72
2023/08/06 07:52:32;;;;;;;0.40;0.40;;;17.00;99.90;;;;;;5090644;28;20113;-72
2023/08/06 07:54:58;;;;;;;0.50;0.40;;;17.00;99.90;;;;;;5091275;28;20282;-72
2023/08/06 07:57:24;;;;;;;0.30;0.30;;;17.10;99.90;;;;;;5091059;28;20032;-73
2023/08/06 07:59:50;;;;;;;0.40;0.40;;;17.20;99.90;;;;;;5090637;28;20053;-73
2023/08/06 08:02:15;;;;;;;1.13;0.63;;;17.30;99.90;;;;;;5090559;28;20047;-74
2023/08/06 08:04:41;;;;;;;1.20;0.50;;;17.30;99.90;;;;;;5090622;28;20048;-73
2023/08/06 08:07:07;;;;;;;0.83;0.83;;;17.40;99.90;;;;;;5090416;28;20136;-72
2023/08/06 08:09:34;;;;;;;0.73;0.60;;;17.40;99.90;;;;;;5090814;28;20524;-72
2023/08/06 08:12:02;;;;;;;0.50;0.50;;;17.40;99.90;;;;;;5090340;28;20491;-73
2023/08/06 08:14:28;;;;;;;0.90;0.90;;;17.30;99.90;;;;;;5090267;28;20046;-73
2023/08/06 08:16:54;;;;;;;0.45;0.40;;;17.30;99.90;;;;;;5089049;28;20052;-73
2023/08/06 08:19:21;;;;;;;0.50;0.50;;;17.30;99.90;;;;;;5090225;28;20087;-74
2023/08/06 08:21:46;;;;;;;0.82;0.52;;;17.40;99.90;;;;;;5090076;28;20048;-73
2023/08/06 08:24:12;;;;;;;1.63;0.90;;;17.40;99.90;;;;;;5090525;28;20048;-73
2023/08/06 08:26:38;;;;;;;0.67;0.67;;;17.30;99.90;;;;;;5089901;28;20040;-74
2023/08/06 08:29:03;;;;;;;0.40;0.40;;;17.30;99.90;;;;;;5080834;28;20169;-73
2023/08/06 08:31:29;;;;;;;0.50;0.50;;;17.30;99.90;;;;;;5076663;28;20094;-74
2023/08/06 08:33:55;;;;;;;0.93;0.70;;;17.30;99.90;;;;;;5076323;28;20062;-74
2023/08/06 08:36:21;;;;;;;0.63;0.50;;;17.40;99.90;;;;;;5076259;28;20044;-73
2023/08/06 08:38:46;;;;;;;0.70;0.70;;;17.50;99.90;;;;;;5076367;28;20098;-74
2023/08/06 08:41:12;;;;;;;0.47;0.47;;;17.70;99.90;;;;;;5076307;28;20489;-75
2023/08/06 08:43:39;;;;;;;0.43;0.43;;;17.90;99.90;;;;;;5076174;28;20129;-74
2023/08/06 08:46:08;;;;;;;0.35;0.35;;;18.00;99.90;;;;;;5076326;28;20037;-74
2023/08/06 08:48:34;;;;;;;0.38;0.38;;;18.00;99.90;;;;;;5076170;28;20044;-74
2023/08/06 08:51:00;;;;;;;0.70;0.60;;;18.10;99.90;;;;;;5076096;28;20561;-74
2023/08/06 08:53:27;;;;;;;0.40;0.40;;;18.10;99.90;;;;;;5075993;28;20094;-74
2023/08/06 08:55:54;;;;;;;0.63;0.45;;;18.10;99.90;;;;;;5076390;28;20040;-75
2023/08/06 08:58:20;;;;;;;1.63;0.73;;;18.20;99.90;;;;;;5076198;28;20119;-74
2023/08/06 09:00:49;;;;;;;0.50;0.50;;;18.30;99.90;;;;;;5075859;28;20071;-73
2023/08/06 09:03:16;;;;;;;1.02;0.80;;;18.20;99.90;;;;;;5075865;28;20036;-73
2023/08/06 09:05:45;;;;;;;1.33;0.88;;;18.30;99.90;;;;;;5075786;28;20032;-74
2023/08/06 09:08:16;;;;;;;0.43;0.43;;;18.40;99.90;;;;;;5075722;28;20087;-73
2023/08/06 09:10:43;;;;;;;0.55;0.55;;;18.60;99.90;;;;;;5076125;28;20044;-74
2023/08/06 09:13:09;;;;;;;0.50;0.50;;;18.70;99.90;;;;;;5075847;28;20033;-75
2023/08/06 09:15:35;;;;;;;0.50;0.50;;;18.90;99.90;;;;;;5075658;28;20486;-74
2023/08/06 09:18:08;;;;;;;0.47;0.40;;;18.90;99.90;;;;;;5075321;28;20044;-74
2023/08/06 09:20:34;;;;;;;0.38;0.38;;;19.00;99.90;;;;;;5075831;28;20044;-73
2023/08/06 09:23:10;;;;;;;0.47;0.47;;;19.10;99.90;;;;;;5075819;28;20050;-73
2023/08/06 09:25:41;;;;;;;0.35;0.35;;;19.20;99.90;;;;;;5075281;28;20536;-73
2023/08/06 09:28:07;;;;;;;0.50;0.50;;;19.30;99.90;;;;;;5075349;28;20037;-74
2023/08/06 09:30:37;;;;;;;1.03;0.70;;;19.30;99.90;;;;;;5075029;28;20051;-74
2023/08/06 09:33:07;;;;;;;0.30;0.30;;;19.30;99.90;;;;;;5075403;28;20045;-75
2023/08/06 09:35:33;;;;;;;0.30;0.30;;;19.30;99.90;;;;;;5075168;28;20044;-74
2023/08/06 09:38:10;;;;;;;0.30;0.30;;;19.40;99.90;;;;;;5075007;28;20044;-73
2023/08/06 09:40:36;;;;;;;0.30;0.30;;;19.50;99.90;;;;;;5074358;28;20085;-72
2023/08/06 09:43:02;;;;;;;0.93;0.90;;;19.70;99.90;;;;;;5074620;28;20051;-74
2023/08/06 09:45:31;;;;;;;0.40;0.40;;;19.70;99.90;;;;;;5075028;28;20045;-78
2023/08/06 09:47:58;;;;;;;0.32;0.32;;;19.80;99.90;;;;;;5074850;28;20048;-74
2023/08/06 09:50:30;;;;;;;0.40;0.40;;;19.90;99.90;;;;;;5074682;28;20163;-74
2023/08/06 09:52:56;;;;;;;0.40;0.40;;;20.00;99.90;;;;;;5074562;28;20043;-73
2023/08/06 09:55:24;;;;;;;0.30;0.30;;;20.00;99.90;;;;;;5074581;28;20032;-73
2023/08/06 09:57:51;;;;;;;0.77;0.55;;;19.90;99.90;;;;;;5073112;28;20473;-73
2023/08/06 10:00:17;;;;;;;0.40;0.40;;;20.00;99.90;;;;;;5074289;28;20036;-73
2023/08/06 10:02:43;;;;;;;0.55;0.55;;;20.10;99.90;;;;;;5074694;28;20044;-73
2023/08/06 10:05:09;;;;;;;0.55;0.52;;;20.20;99.90;;;;;;5074454;28;20044;-74
2023/08/06 10:07:36;;;;;;;0.32;0.32;;;20.20;99.90;;;;;;5074432;28;20465;-73
2023/08/06 10:10:03;;;;;;;0.50;0.50;;;20.30;99.90;;;;;;5074392;28;20040;-73
2023/08/06 10:12:44;;;;;;;1.45;0.50;;;20.40;99.90;;;;;;5074455;28;20086;-80
2023/08/06 10:15:14;;;;;;;0.40;0.40;;;20.50;99.90;;;;;;5074671;28;20091;-78
2023/08/06 10:17:41;;;;;;;0.68;0.60;;;20.50;99.90;;;;;;5074005;28;20071;-73
2023/08/06 10:20:08;;;;;;;0.30;0.30;;;20.50;99.90;;;;;;5074329;28;20098;-74
2023/08/06 10:22:34;;;;;;;0.40;0.40;;;20.40;99.90;;;;;;5074134;28;20518;-76
2023/08/06 10:25:07;;;;;;;0.63;0.50;;;20.40;99.90;;;;;;5074243;28;20123;-76
2023/08/06 10:27:35;;;;;;;0.38;0.38;;;20.40;99.90;;;;;;5074275;28;20040;-75
2023/08/06 10:30:21;;;;;;;0.40;0.40;;;20.40;99.90;;;;;;5074114;28;20040;-73
2023/08/06 10:32:51;;;;;;;0.25;0.25;;;20.40;99.90;;;;;;5073103;28;20040;-72
2023/08/06 10:35:36;;;;;;;0.30;0.30;;;20.40;99.90;;;;;;5074249;28;20063;-77
2023/08/06 10:38:05;;;;;;;0.30;0.30;;;20.50;99.90;;;;;;5073701;28;20043;-73
2023/08/06 10:40:32;;;;;;;0.40;0.40;;;20.70;99.90;;;;;;5073957;28;20055;-73
2023/08/06 10:43:02;;;;;;;0.30;0.30;;;20.90;99.90;;;;;;5074011;28;20037;-73
2023/08/06 10:45:30;;;;;;;0.40;0.40;;;21.20;99.90;;;;;;5072950;28;20080;-74
2023/08/06 10:47:57;;;;;;;0.30;0.30;;;21.50;99.90;;;;;;5073740;28;20056;-73
2023/08/06 10:50:23;;;;;;;0.60;0.55;;;21.70;99.90;;;;;;5073778;28;20041;-74
2023/08/06 10:52:48;;;;;;;0.70;0.70;;;21.80;99.90;;;;;;5073638;28;20035;-78
2023/08/06 10:55:22;;;;;;;0.40;0.40;;;21.80;99.90;;;;;;5072534;28;20043;-78
2023/08/06 10:57:48;;;;;;;0.45;0.40;;;21.80;99.90;;;;;;5073768;28;20039;-75
2023/08/06 11:00:14;;;;;;;0.27;0.27;;;21.80;99.90;;;;;;5073836;28;20360;-73
2023/08/06 11:02:41;;;;;;;0.50;0.40;;;21.90;99.90;;;;;;5073487;28;20041;-74
2023/08/06 11:05:11;;;;;;;0.40;0.40;;;21.90;99.90;;;;;;5072685;28;20412;-74
2023/08/06 11:07:38;;;;;;;0.77;0.63;;;22.00;99.90;;;;;;5072036;28;20037;-74
2023/08/06 11:10:05;;;;;;;0.38;0.38;;;22.00;99.90;;;;;;5072939;28;20032;-74
2023/08/06 11:12:32;;;;;;;0.25;0.25;;;22.10;99.90;;;;;;5072552;28;20135;-73
2023/08/06 11:14:58;;;;;;;;;;;22.20;99.90;;;;;;5073104;28;20028;-74
2023/08/06 11:17:24;;;;;;;0.55;0.40;;;22.30;99.90;;;;;;5072494;28;19923;-74
2023/08/06 11:19:50;;;;;;;0.40;0.40;;;22.50;99.90;;;;;;5073563;28;20044;-73
2023/08/06 11:22:17;;;;;;;0.53;0.40;;;22.50;99.90;;;;;;5073577;28;20102;-73
2023/08/06 11:24:43;;;;;;;0.30;0.30;;;22.60;99.90;;;;;;5073467;28;20434;-74
2023/08/06 11:27:15;;;;;;;0.20;0.20;;;22.80;99.90;;;;;;5073420;28;20063;-73
2023/08/06 11:29:42;;;;;;;0.45;0.45;;;22.80;99.90;;;;;;5073414;28;20131;-74
2023/08/06 11:32:08;;;;;;;0.25;0.25;;;22.70;99.90;;;;;;5073343;28;20036;-73
2023/08/06 11:34:35;;;;;;;0.40;0.40;;;22.50;99.90;;;;;;5073466;28;20092;-73
2023/08/06 11:37:02;;;;;;;0.30;0.30;;;22.30;99.90;;;;;;5073459;28;20084;-73
2023/08/06 11:39:28;;;;;;;0.30;0.30;;;22.10;99.90;;;;;;5073313;28;20127;-74
2023/08/06 11:41:53;;;;;;;0.30;0.30;;;22.00;99.90;;;;;;5073582;28;20119;-74
2023/08/06 11:44:20;;;;;;;0.30;0.30;;;21.90;99.90;;;;;;5073292;28;20403;-73
2023/08/06 11:46:52;;;;;;;0.30;0.30;;;21.80;99.90;;;;;;5073230;28;20043;-74
2023/08/06 11:49:21;;;;;;;0.38;0.30;;;21.90;99.90;;;;;;5073579;28;20123;-74
2023/08/06 11:51:47;;;;;;;0.30;0.30;;;21.90;99.90;;;;;;5072086;28;20040;-73
2023/08/06 11:54:13;;;;;;;;;;;21.80;99.90;;;;;;5073563;28;20062;-74
2023/08/06 11:56:39;;;;;;;0.30;0.30;;;21.70;99.90;;;;;;5073370;28;19917;-73
2023/08/06 11:59:05;;;;;;;0.50;0.50;;;21.50;99.90;;;;;;5073226;28;20465;-73
2023/08/06 12:01:31;;;;;;;0.30;0.30;;;21.40;99.90;;;;;;5072813;28;20048;-73
2023/08/06 12:04:00;;;;;;;0.20;0.20;;;21.30;99.90;;;;;;5074479;28;20461;-74
2023/08/06 12:06:28;;;;;;;0.20;0.20;;;21.30;99.90;;;;;;5076697;28;20480;-73
2023/08/06 12:08:54;;;;;;;0.25;0.25;;;21.20;99.90;;;;;;5077032;28;20486;-73
2023/08/06 12:11:21;;;;;;;0.40;0.40;;;21.20;99.90;;;;;;5076654;28;20302;-73
2023/08/06 12:13:51;;;;;;;0.25;0.25;;;21.10;99.90;;;;;;5076342;28;20045;-74
2023/08/06 12:16:18;;;;;;;0.40;0.40;;;21.10;99.90;;;;;;5076331;28;20048;-77
2023/08/06 12:18:44;;;;;;;0.20;0.20;;;21.00;99.90;;;;;;5076624;28;20044;-74
2023/08/06 12:21:10;;;;;;;0.30;0.30;;;21.00;99.90;;;;;;5076548;28;20044;-76
2023/08/06 12:23:36;;;;;;;0.30;0.30;;;21.00;99.90;;;;;;5076680;28;20052;-75
2023/08/06 12:26:01;;;;;;;0.20;0.20;;;21.00;99.90;;;;;;5076483;28;20117;-75
2023/08/06 12:28:27;;;;;;;0.43;0.43;;;21.00;99.90;;;;;;5076360;28;20483;-75
2023/08/06 12:30:55;;;;;;;0.30;0.30;;;20.90;99.90;;;;;;5076424;28;20080;-75
2023/08/06 12:33:20;;;;;;;0.20;0.20;;;20.90;99.90;;;;;;5076277;28;20119;-75
2023/08/06 12:35:46;;;;;;;0.43;0.40;;;21.00;99.90;;;;;;5076277;28;20153;-76
2023/08/06 12:38:13;;;;;;;0.20;0.20;;;21.00;99.90;;;;;;5074972;28;20137;-75
2023/08/06 12:40:39;;;;;;;0.30;0.30;;;21.10;99.90;;;;;;5076148;28;20046;-75
2023/08/06 12:43:04;;;;;;;0.47;0.40;;;21.10;99.90;;;;;;5076371;28;20037;-75
2023/08/06 12:45:30;;;;;;;0.30;0.30;;;21.20;99.90;;;;;;5076106;28;20448;-76